sensor_id;sensor_type;location;lat;lon;timestamp;temperature;humidity
20574;DHT22;10445;50.216;7.912;2023-01-15T00:02:46;7.70;99.90
20574;DHT22;10445;50.216;7.912;2023-01-15T00:05:35;7.60;99.90
20574;DHT22;10445;50.216;7.912;2023-01-15T00:08:23;7.60;99.90
20574;DHT22;10445;50.216;7.912;2023-01-15T00:11:12;7.60;99.90
20574;DHT22;10445;50.216;7.912;2023-01-15T00:14:03;7.50;99.90
20574;DHT22;10445;50.216;7.912;2023-01-15T00:16:52;7.40;99.90
20574;DHT22;10445;50.216;7.912;2023-01-15T00:19:41;7.40;99.90
20574;DHT22;10445;50.216;7.912;2023-01-15T00:22:30;7.40;99.90
20574;DHT22;10445;50.216;7.912;2023-01-15T00:25:21;7.30;99.90
20574;DHT22;10445;50.216;7.912;2023-01-15T00:28:28;7.40;99.90
20574;DHT22;10445;50.216;7.912;2023-01-15T00:31:18;7.40;99.90
20574;DHT22;10445;50.216;7.912;2023-01-15T00:34:09;7.40;99.90
20574;DHT22;10445;50.216;7.912;2023-01-15T00:36:58;7.40;99.90
20574;DHT22;10445;50.216;7.912;2023-01-15T00:39:47;7.30;99.90
20574;DHT22;10445;50.216;7.912;2023-01-15T00:42:36;7.30;99.90
20574;DHT22;10445;50.216;7.912;2023-01-15T00:45:25;7.40;99.90
20574;DHT22;10445;50.216;7.912;2023-01-15T00:48:16;7.30;99.90
20574;DHT22;10445;50.216;7.912;2023-01-15T00:51:05;7.30;99.90
20574;DHT22;10445;50.216;7.912;2023-01-15T00:53:54;7.20;99.90
20574;DHT22;10445;50.216;7.912;2023-01-15T00:56:43;7.30;99.90
20574;DHT22;10445;50.216;7.912;2023-01-15T00:59:32;7.20;99.90
20574;DHT22;10445;50.216;7.912;2023-01-15T01:02:21;7.20;99.90
20574;DHT22;10445;50.216;7.912;2023-01-15T01:05:11;7.20;99.90
20574;DHT22;10445;50.216;7.912;2023-01-15T01:08:00;7.20;99.90
20574;DHT22;10445;50.216;7.912;2023-01-15T01:10:49;7.20;99.90
20574;DHT22;10445;50.216;7.912;2023-01-15T01:13:43;7.20;99.90
20574;DHT22;10445;50.216;7.912;2023-01-15T01:16:41;7.20;99.90
20574;DHT22;10445;50.216;7.912;2023-01-15T01:19:31;7.20;99.90
20574;DHT22;10445;50.216;7.912;2023-01-15T01:22:21;7.00;99.90
20574;DHT22;10445;50.216;7.912;2023-01-15T01:25:10;6.70;99.90
20574;DHT22;10445;50.216;7.912;2023-01-15T01:27:59;6.50;99.90
20574;DHT22;10445;50.216;7.912;2023-01-15T01:30:48;6.40;99.90
20574;DHT22;10445;50.216;7.912;2023-01-15T01:33:36;6.40;99.90
20574;DHT22;10445;50.216;7.912;2023-01-15T01:36:27;6.30;99.90
20574;DHT22;10445;50.216;7.912;2023-01-15T01:39:18;6.20;99.90
20574;DHT22;10445;50.216;7.912;2023-01-15T01:42:11;6.20;99.90
20574;DHT22;10445;50.216;7.912;2023-01-15T01:45:04;6.10;99.90
20574;DHT22;10445;50.216;7.912;2023-01-15T01:47:56;6.10;99.90
20574;DHT22;10445;50.216;7.912;2023-01-15T01:50:48;6.00;99.90
20574;DHT22;10445;50.216;7.912;2023-01-15T01:53:38;6.00;99.90
20574;DHT22;10445;50.216;7.912;2023-01-15T01:56:33;6.00;99.90
20574;DHT22;10445;50.216;7.912;2023-01-15T01:59:25;6.00;99.90
20574;DHT22;10445;50.216;7.912;2023-01-15T02:02:15;5.90;99.90
20574;DHT22;10445;50.216;7.912;2023-01-15T02:05:07;5.90;99.90
20574;DHT22;10445;50.216;7.912;2023-01-15T02:07:56;5.90;99.90
20574;DHT22;10445;50.216;7.912;2023-01-15T02:10:49;5.80;99.90
20574;DHT22;10445;50.216;7.912;2023-01-15T02:13:44;5.80;99.90
20574;DHT22;10445;50.216;7.912;2023-01-15T02:16:41;5.70;99.90
20574;DHT22;10445;50.216;7.912;2023-01-15T02:19:39;5.70;99.90
20574;DHT22;10445;50.216;7.912;2023-01-15T02:22:40;5.60;99.90
20574;DHT22;10445;50.216;7.912;2023-01-15T02:25:38;5.60;99.90
20574;DHT22;10445;50.216;7.912;2023-01-15T02:28:32;5.50;99.90
20574;DHT22;10445;50.216;7.912;2023-01-15T02:31:26;5.50;99.90
20574;DHT22;10445;50.216;7.912;2023-01-15T02:34:21;5.50;99.90
20574;DHT22;10445;50.216;7.912;2023-01-15T02:37:14;5.50;99.90
20574;DHT22;10445;50.216;7.912;2023-01-15T02:40:09;5.30;99.90
20574;DHT22;10445;50.216;7.912;2023-01-15T02:42:59;5.20;99.90
20574;DHT22;10445;50.216;7.912;2023-01-15T02:45:51;5.00;99.90
20574;DHT22;10445;50.216;7.912;2023-01-15T02:48:45;4.80;99.90
20574;DHT22;10445;50.216;7.912;2023-01-15T02:51:39;4.60;99.90
20574;DHT22;10445;50.216;7.912;2023-01-15T02:54:32;4.50;99.90
20574;DHT22;10445;50.216;7.912;2023-01-15T02:57:24;4.50;99.90
20574;DHT22;10445;50.216;7.912;2023-01-15T03:00:16;4.50;99.90
20574;DHT22;10445;50.216;7.912;2023-01-15T03:03:12;4.20;99.90
20574;DHT22;10445;50.216;7.912;2023-01-15T03:06:06;4.20;99.90
20574;DHT22;10445;50.216;7.912;2023-01-15T03:08:56;4.20;99.90
20574;DHT22;10445;50.216;7.912;2023-01-15T03:11:50;4.10;99.90
20574;DHT22;10445;50.216;7.912;2023-01-15T03:14:51;4.10;99.90
20574;DHT22;10445;50.216;7.912;2023-01-15T03:17:47;4.10;99.90
20574;DHT22;10445;50.216;7.912;2023-01-15T03:20:42;4.10;99.90
20574;DHT22;10445;50.216;7.912;2023-01-15T03:23:36;4.10;99.90
20574;DHT22;10445;50.216;7.912;2023-01-15T03:26:26;4.00;99.90
20574;DHT22;10445;50.216;7.912;2023-01-15T03:29:15;3.90;99.90
20574;DHT22;10445;50.216;7.912;2023-01-15T03:32:05;3.90;99.90
20574;DHT22;10445;50.216;7.912;2023-01-15T03:34:55;3.90;99.90
20574;DHT22;10445;50.216;7.912;2023-01-15T03:37:46;3.80;99.90
20574;DHT22;10445;50.216;7.912;2023-01-15T03:40:37;3.80;99.90
20574;DHT22;10445;50.216;7.912;2023-01-15T03:43:33;3.80;99.90
20574;DHT22;10445;50.216;7.912;2023-01-15T03:46:39;3.80;99.90
20574;DHT22;10445;50.216;7.912;2023-01-15T03:49:41;3.80;99.90
20574;DHT22;10445;50.216;7.912;2023-01-15T03:52:36;3.80;99.90
20574;DHT22;10445;50.216;7.912;2023-01-15T03:55:34;3.80;99.90
20574;DHT22;10445;50.216;7.912;2023-01-15T03:58:29;3.70;99.90
20574;DHT22;10445;50.216;7.912;2023-01-15T04:01:20;3.60;99.90
20574;DHT22;10445;50.216;7.912;2023-01-15T04:04:12;3.50;99.90
20574;DHT22;10445;50.216;7.912;2023-01-15T04:07:02;3.50;99.90
20574;DHT22;10445;50.216;7.912;2023-01-15T04:09:51;3.50;99.90
20574;DHT22;10445;50.216;7.912;2023-01-15T04:12:41;3.50;99.90
20574;DHT22;10445;50.216;7.912;2023-01-15T04:15:30;3.40;99.90
20574;DHT22;10445;50.216;7.912;2023-01-15T04:18:19;3.40;99.90
20574;DHT22;10445;50.216;7.912;2023-01-15T04:21:08;3.40;99.90
20574;DHT22;10445;50.216;7.912;2023-01-15T04:23:57;3.40;99.90
20574;DHT22;10445;50.216;7.912;2023-01-15T04:26:45;3.30;99.90
20574;DHT22;10445;50.216;7.912;2023-01-15T04:29:35;3.20;99.90
20574;DHT22;10445;50.216;7.912;2023-01-15T04:32:24;3.20;99.90
20574;DHT22;10445;50.216;7.912;2023-01-15T04:35:13;3.10;99.90
20574;DHT22;10445;50.216;7.912;2023-01-15T04:38:02;3.10;99.90
20574;DHT22;10445;50.216;7.912;2023-01-15T04:40:51;3.10;99.90
20574;DHT22;10445;50.216;7.912;2023-01-15T04:43:57;3.10;99.90
20574;DHT22;10445;50.216;7.912;2023-01-15T04:46:56;3.10;99.90
20574;DHT22;10445;50.216;7.912;2023-01-15T04:49:46;3.10;99.90
20574;DHT22;10445;50.216;7.912;2023-01-15T04:52:35;3.10;99.90
20574;DHT22;10445;50.216;7.912;2023-01-15T04:55:23;3.10;99.90
20574;DHT22;10445;50.216;7.912;2023-01-15T04:58:12;3.10;99.90
20574;DHT22;10445;50.216;7.912;2023-01-15T05:01:01;3.10;99.90
20574;DHT22;10445;50.216;7.912;2023-01-15T05:03:52;3.10;99.90
20574;DHT22;10445;50.216;7.912;2023-01-15T05:06:41;3.10;99.90
20574;DHT22;10445;50.216;7.912;2023-01-15T05:09:30;3.10;99.90
20574;DHT22;10445;50.216;7.912;2023-01-15T05:12:19;3.10;99.90
20574;DHT22;10445;50.216;7.912;2023-01-15T05:15:09;3.00;99.90
20574;DHT22;10445;50.216;7.912;2023-01-15T05:17:57;3.00;99.90
20574;DHT22;10445;50.216;7.912;2023-01-15T05:20:47;3.00;99.90
20574;DHT22;10445;50.216;7.912;2023-01-15T05:23:37;3.00;99.90
20574;DHT22;10445;50.216;7.912;2023-01-15T05:26:27;3.10;99.90
20574;DHT22;10445;50.216;7.912;2023-01-15T05:29:17;3.00;99.90
20574;DHT22;10445;50.216;7.912;2023-01-15T05:32:06;2.90;99.90
20574;DHT22;10445;50.216;7.912;2023-01-15T05:34:55;2.90;99.90
20574;DHT22;10445;50.216;7.912;2023-01-15T05:37:45;2.90;99.90
20574;DHT22;10445;50.216;7.912;2023-01-15T05:40:35;2.90;99.90
20574;DHT22;10445;50.216;7.912;2023-01-15T05:43:24;2.90;99.90
20574;DHT22;10445;50.216;7.912;2023-01-15T05:46:13;2.90;99.90
20574;DHT22;10445;50.216;7.912;2023-01-15T05:49:02;2.90;99.90
20574;DHT22;10445;50.216;7.912;2023-01-15T05:51:52;3.00;99.90
20574;DHT22;10445;50.216;7.912;2023-01-15T05:54:42;3.00;99.90
20574;DHT22;10445;50.216;7.912;2023-01-15T05:57:31;3.10;99.90
20574;DHT22;10445;50.216;7.912;2023-01-15T06:00:21;3.10;99.90
20574;DHT22;10445;50.216;7.912;2023-01-15T06:03:10;3.00;99.90
20574;DHT22;10445;50.216;7.912;2023-01-15T06:05:58;3.10;99.90
20574;DHT22;10445;50.216;7.912;2023-01-15T06:08:47;3.10;99.90
20574;DHT22;10445;50.216;7.912;2023-01-15T06:11:37;3.10;99.90
20574;DHT22;10445;50.216;7.912;2023-01-15T06:14:26;3.10;99.90
20574;DHT22;10445;50.216;7.912;2023-01-15T06:17:14;3.10;99.90
20574;DHT22;10445;50.216;7.912;2023-01-15T06:20:04;3.10;99.90
20574;DHT22;10445;50.216;7.912;2023-01-15T06:22:52;3.10;99.90
20574;DHT22;10445;50.216;7.912;2023-01-15T06:25:41;3.10;99.90
20574;DHT22;10445;50.216;7.912;2023-01-15T06:28:31;3.00;99.90
20574;DHT22;10445;50.216;7.912;2023-01-15T06:31:22;3.00;99.90
20574;DHT22;10445;50.216;7.912;2023-01-15T06:34:13;2.90;99.90
20574;DHT22;10445;50.216;7.912;2023-01-15T06:37:01;2.90;99.90
20574;DHT22;10445;50.216;7.912;2023-01-15T06:39:50;2.90;99.90
20574;DHT22;10445;50.216;7.912;2023-01-15T06:42:39;2.90;99.90
20574;DHT22;10445;50.216;7.912;2023-01-15T06:45:46;2.80;99.90
20574;DHT22;10445;50.216;7.912;2023-01-15T06:49:07;2.80;99.90
20574;DHT22;10445;50.216;7.912;2023-01-15T06:51:56;2.80;99.90
20574;DHT22;10445;50.216;7.912;2023-01-15T06:54:44;2.80;99.90
20574;DHT22;10445;50.216;7.912;2023-01-15T06:57:33;2.80;99.90
20574;DHT22;10445;50.216;7.912;2023-01-15T07:00:25;2.80;99.90
20574;DHT22;10445;50.216;7.912;2023-01-15T07:03:15;2.70;99.90
20574;DHT22;10445;50.216;7.912;2023-01-15T07:06:07;2.70;99.90
20574;DHT22;10445;50.216;7.912;2023-01-15T07:08:56;2.60;99.90
20574;DHT22;10445;50.216;7.912;2023-01-15T07:11:45;2.70;99.90
20574;DHT22;10445;50.216;7.912;2023-01-15T07:14:36;2.70;99.90
20574;DHT22;10445;50.216;7.912;2023-01-15T07:17:25;2.80;99.90
20574;DHT22;10445;50.216;7.912;2023-01-15T07:20:16;2.80;99.90
20574;DHT22;10445;50.216;7.912;2023-01-15T07:23:07;2.80;99.90
20574;DHT22;10445;50.216;7.912;2023-01-15T07:25:56;2.80;99.90
20574;DHT22;10445;50.216;7.912;2023-01-15T07:28:45;2.80;99.90
20574;DHT22;10445;50.216;7.912;2023-01-15T07:31:34;2.80;99.90
20574;DHT22;10445;50.216;7.912;2023-01-15T07:34:22;2.80;99.90
20574;DHT22;10445;50.216;7.912;2023-01-15T07:37:12;2.70;99.90
20574;DHT22;10445;50.216;7.912;2023-01-15T07:40:01;2.70;99.90
20574;DHT22;10445;50.216;7.912;2023-01-15T07:42:50;2.80;99.90
20574;DHT22;10445;50.216;7.912;2023-01-15T07:45:56;2.80;99.90
20574;DHT22;10445;50.216;7.912;2023-01-15T07:49:02;2.80;99.90
20574;DHT22;10445;50.216;7.912;2023-01-15T07:52:08;2.70;99.90
20574;DHT22;10445;50.216;7.912;2023-01-15T07:54:58;2.70;99.90
20574;DHT22;10445;50.216;7.912;2023-01-15T07:57:47;2.70;99.90
20574;DHT22;10445;50.216;7.912;2023-01-15T08:00:36;2.70;99.90
20574;DHT22;10445;50.216;7.912;2023-01-15T08:03:28;2.70;99.90
20574;DHT22;10445;50.216;7.912;2023-01-15T08:06:16;2.80;99.90
20574;DHT22;10445;50.216;7.912;2023-01-15T08:09:05;2.80;99.90
20574;DHT22;10445;50.216;7.912;2023-01-15T08:11:57;2.80;99.90
20574;DHT22;10445;50.216;7.912;2023-01-15T08:15:04;2.80;99.90
20574;DHT22;10445;50.216;7.912;2023-01-15T08:18:03;2.80;99.90
20574;DHT22;10445;50.216;7.912;2023-01-15T08:20:52;2.80;99.90
20574;DHT22;10445;50.216;7.912;2023-01-15T08:23:41;2.80;99.90
20574;DHT22;10445;50.216;7.912;2023-01-15T08:26:32;2.80;99.90
20574;DHT22;10445;50.216;7.912;2023-01-15T08:29:22;2.90;99.90
20574;DHT22;10445;50.216;7.912;2023-01-15T08:32:11;2.80;99.90
20574;DHT22;10445;50.216;7.912;2023-01-15T08:35:00;2.80;99.90
20574;DHT22;10445;50.216;7.912;2023-01-15T08:37:48;2.90;99.90
20574;DHT22;10445;50.216;7.912;2023-01-15T08:40:37;2.90;99.90
20574;DHT22;10445;50.216;7.912;2023-01-15T08:43:44;2.90;99.90
20574;DHT22;10445;50.216;7.912;2023-01-15T08:46:35;2.90;99.90
20574;DHT22;10445;50.216;7.912;2023-01-15T08:49:23;2.90;99.90
20574;DHT22;10445;50.216;7.912;2023-01-15T08:52:12;2.80;99.90
20574;DHT22;10445;50.216;7.912;2023-01-15T08:55:01;2.90;99.90
20574;DHT22;10445;50.216;7.912;2023-01-15T08:57:49;2.90;99.90
20574;DHT22;10445;50.216;7.912;2023-01-15T09:00:38;2.90;99.90
20574;DHT22;10445;50.216;7.912;2023-01-15T09:03:28;2.90;99.90
20574;DHT22;10445;50.216;7.912;2023-01-15T09:06:17;2.80;99.90
20574;DHT22;10445;50.216;7.912;2023-01-15T09:09:06;2.80;99.90
20574;DHT22;10445;50.216;7.912;2023-01-15T09:11:54;2.80;99.90
20574;DHT22;10445;50.216;7.912;2023-01-15T09:14:43;2.80;99.90
20574;DHT22;10445;50.216;7.912;2023-01-15T09:17:51;2.70;99.90
20574;DHT22;10445;50.216;7.912;2023-01-15T09:20:41;2.70;99.90
20574;DHT22;10445;50.216;7.912;2023-01-15T09:23:30;2.70;99.90
20574;DHT22;10445;50.216;7.912;2023-01-15T09:26:28;2.70;99.90
20574;DHT22;10445;50.216;7.912;2023-01-15T09:29:17;2.80;99.90
20574;DHT22;10445;50.216;7.912;2023-01-15T09:32:06;2.80;99.90
20574;DHT22;10445;50.216;7.912;2023-01-15T09:34:56;2.80;99.90
20574;DHT22;10445;50.216;7.912;2023-01-15T09:37:50;2.80;99.90
20574;DHT22;10445;50.216;7.912;2023-01-15T09:40:46;2.90;99.90
20574;DHT22;10445;50.216;7.912;2023-01-15T09:43:42;3.00;99.90
20574;DHT22;10445;50.216;7.912;2023-01-15T09:46:44;3.00;99.90
20574;DHT22;10445;50.216;7.912;2023-01-15T09:49:52;3.10;99.90
20574;DHT22;10445;50.216;7.912;2023-01-15T09:56:02;3.10;96.40
20574;DHT22;10445;50.216;7.912;2023-01-15T09:58:52;3.10;96.10
20574;DHT22;10445;50.216;7.912;2023-01-15T10:01:43;3.10;96.50
20574;DHT22;10445;50.216;7.912;2023-01-15T10:04:39;3.20;95.90
20574;DHT22;10445;50.216;7.912;2023-01-15T10:07:36;3.10;94.50
20574;DHT22;10445;50.216;7.912;2023-01-15T10:10:34;3.10;95.10
20574;DHT22;10445;50.216;7.912;2023-01-15T10:13:36;3.10;94.90
20574;DHT22;10445;50.216;7.912;2023-01-15T10:16:28;3.10;94.30
20574;DHT22;10445;50.216;7.912;2023-01-15T10:19:20;3.10;94.00
20574;DHT22;10445;50.216;7.912;2023-01-15T10:22:16;3.10;93.80
20574;DHT22;10445;50.216;7.912;2023-01-15T10:25:14;3.10;92.00
20574;DHT22;10445;50.216;7.912;2023-01-15T10:28:15;3.10;92.70
20574;DHT22;10445;50.216;7.912;2023-01-15T10:31:11;3.20;93.40
20574;DHT22;10445;50.216;7.912;2023-01-15T10:37:28;3.20;95.20
20574;DHT22;10445;50.216;7.912;2023-01-15T10:43:42;3.30;94.00
20574;DHT22;10445;50.216;7.912;2023-01-15T10:46:34;3.30;93.80
20574;DHT22;10445;50.216;7.912;2023-01-15T10:49:27;3.30;95.80
20574;DHT22;10445;50.216;7.912;2023-01-15T10:52:22;3.30;93.60
20574;DHT22;10445;50.216;7.912;2023-01-15T10:55:18;3.40;93.90
20574;DHT22;10445;50.216;7.912;2023-01-15T10:58:13;3.50;91.70
20574;DHT22;10445;50.216;7.912;2023-01-15T11:01:10;3.70;89.80
20574;DHT22;10445;50.216;7.912;2023-01-15T11:04:00;3.70;88.20
20574;DHT22;10445;50.216;7.912;2023-01-15T11:06:49;3.70;85.40
20574;DHT22;10445;50.216;7.912;2023-01-15T11:09:40;3.70;85.50
20574;DHT22;10445;50.216;7.912;2023-01-15T11:12:29;3.80;85.10
20574;DHT22;10445;50.216;7.912;2023-01-15T11:15:35;3.80;82.40
20574;DHT22;10445;50.216;7.912;2023-01-15T11:18:44;3.80;81.80
20574;DHT22;10445;50.216;7.912;2023-01-15T11:21:51;3.80;76.80
20574;DHT22;10445;50.216;7.912;2023-01-15T11:24:48;3.80;78.10
20574;DHT22;10445;50.216;7.912;2023-01-15T11:27:38;3.80;75.70
20574;DHT22;10445;50.216;7.912;2023-01-15T11:30:29;3.80;77.50
20574;DHT22;10445;50.216;7.912;2023-01-15T11:33:24;3.70;75.70
20574;DHT22;10445;50.216;7.912;2023-01-15T11:36:23;3.80;77.10
20574;DHT22;10445;50.216;7.912;2023-01-15T11:39:25;4.00;73.90
20574;DHT22;10445;50.216;7.912;2023-01-15T11:42:15;4.30;69.70
20574;DHT22;10445;50.216;7.912;2023-01-15T11:45:22;4.40;68.90
20574;DHT22;10445;50.216;7.912;2023-01-15T11:48:29;4.50;65.20
20574;DHT22;10445;50.216;7.912;2023-01-15T11:51:39;4.50;65.90
20574;DHT22;10445;50.216;7.912;2023-01-15T11:54:29;4.80;63.80
20574;DHT22;10445;50.216;7.912;2023-01-15T11:57:25;4.80;58.10
20574;DHT22;10445;50.216;7.912;2023-01-15T12:00:20;4.80;56.70
20574;DHT22;10445;50.216;7.912;2023-01-15T12:03:14;4.80;53.70
20574;DHT22;10445;50.216;7.912;2023-01-15T12:06:07;4.80;57.80
20574;DHT22;10445;50.216;7.912;2023-01-15T12:09:04;4.90;55.50
20574;DHT22;10445;50.216;7.912;2023-01-15T12:12:06;5.00;52.80
20574;DHT22;10445;50.216;7.912;2023-01-15T12:15:05;5.00;49.80
20574;DHT22;10445;50.216;7.912;2023-01-15T12:18:14;5.00;53.90
20574;DHT22;10445;50.216;7.912;2023-01-15T12:21:23;5.10;52.70
20574;DHT22;10445;50.216;7.912;2023-01-15T12:24:34;5.20;48.30
20574;DHT22;10445;50.216;7.912;2023-01-15T12:27:34;5.30;48.80
20574;DHT22;10445;50.216;7.912;2023-01-15T12:30:34;5.20;45.60
20574;DHT22;10445;50.216;7.912;2023-01-15T12:33:35;5.10;46.20
20574;DHT22;10445;50.216;7.912;2023-01-15T12:36:30;5.00;52.00
20574;DHT22;10445;50.216;7.912;2023-01-15T12:39:23;4.90;50.40
20574;DHT22;10445;50.216;7.912;2023-01-15T12:42:16;4.70;51.10
20574;DHT22;10445;50.216;7.912;2023-01-15T12:45:25;4.60;57.40
20574;DHT22;10445;50.216;7.912;2023-01-15T12:48:24;4.60;61.10
20574;DHT22;10445;50.216;7.912;2023-01-15T12:51:19;4.60;57.60
20574;DHT22;10445;50.216;7.912;2023-01-15T12:54:13;4.50;60.70
20574;DHT22;10445;50.216;7.912;2023-01-15T12:57:11;4.60;57.10
20574;DHT22;10445;50.216;7.912;2023-01-15T13:00:09;4.90;52.70
20574;DHT22;10445;50.216;7.912;2023-01-15T13:03:08;5.10;47.30
20574;DHT22;10445;50.216;7.912;2023-01-15T13:06:04;5.60;32.90
20574;DHT22;10445;50.216;7.912;2023-01-15T13:09:00;5.50;35.60
20574;DHT22;10445;50.216;7.912;2023-01-15T13:11:49;5.30;38.10
20574;DHT22;10445;50.216;7.912;2023-01-15T13:14:39;5.00;39.50
20574;DHT22;10445;50.216;7.912;2023-01-15T13:17:35;5.20;41.20
20574;DHT22;10445;50.216;7.912;2023-01-15T13:20:40;5.70;37.40
20574;DHT22;10445;50.216;7.912;2023-01-15T13:23:41;6.40;27.00
20574;DHT22;10445;50.216;7.912;2023-01-15T13:26:50;6.80;15.80
20574;DHT22;10445;50.216;7.912;2023-01-15T13:30:07;6.70;15.00
20574;DHT22;10445;50.216;7.912;2023-01-15T13:33:18;5.60;20.00
20574;DHT22;10445;50.216;7.912;2023-01-15T13:36:13;5.10;31.90
20574;DHT22;10445;50.216;7.912;2023-01-15T13:39:05;4.90;36.80
20574;DHT22;10445;50.216;7.912;2023-01-15T13:41:59;4.90;35.90
20574;DHT22;10445;50.216;7.912;2023-01-15T13:45:23;4.80;39.90
20574;DHT22;10445;50.216;7.912;2023-01-15T13:48:18;4.70;36.90
20574;DHT22;10445;50.216;7.912;2023-01-15T13:51:23;4.70;38.10
20574;DHT22;10445;50.216;7.912;2023-01-15T13:54:16;4.70;36.20
20574;DHT22;10445;50.216;7.912;2023-01-15T13:57:18;4.70;33.00
20574;DHT22;10445;50.216;7.912;2023-01-15T14:00:27;4.80;32.60
20574;DHT22;10445;50.216;7.912;2023-01-15T14:03:26;4.80;31.30
20574;DHT22;10445;50.216;7.912;2023-01-15T14:06:15;4.80;31.20
20574;DHT22;10445;50.216;7.912;2023-01-15T14:09:04;4.70;30.00
20574;DHT22;10445;50.216;7.912;2023-01-15T14:12:05;4.70;26.70
20574;DHT22;10445;50.216;7.912;2023-01-15T14:15:03;4.70;29.10
20574;DHT22;10445;50.216;7.912;2023-01-15T14:18:09;4.70;28.30
20574;DHT22;10445;50.216;7.912;2023-01-15T14:21:19;4.70;28.30
20574;DHT22;10445;50.216;7.912;2023-01-15T14:24:42;4.70;27.30
20574;DHT22;10445;50.216;7.912;2023-01-15T14:27:44;4.80;28.70
20574;DHT22;10445;50.216;7.912;2023-01-15T14:31:09;4.90;29.80
20574;DHT22;10445;50.216;7.912;2023-01-15T14:34:19;4.90;28.50
20574;DHT22;10445;50.216;7.912;2023-01-15T14:37:24;5.10;30.40
20574;DHT22;10445;50.216;7.912;2023-01-15T14:40:21;5.10;29.00
20574;DHT22;10445;50.216;7.912;2023-01-15T14:43:18;5.10;30.90
20574;DHT22;10445;50.216;7.912;2023-01-15T14:46:13;5.20;31.50
20574;DHT22;10445;50.216;7.912;2023-01-15T14:49:02;5.10;32.30
20574;DHT22;10445;50.216;7.912;2023-01-15T14:51:51;4.90;31.50
20574;DHT22;10445;50.216;7.912;2023-01-15T14:54:42;4.80;31.50
20574;DHT22;10445;50.216;7.912;2023-01-15T14:57:32;4.80;33.10
20574;DHT22;10445;50.216;7.912;2023-01-15T15:00:21;4.80;34.80
20574;DHT22;10445;50.216;7.912;2023-01-15T15:03:15;4.80;33.80
20574;DHT22;10445;50.216;7.912;2023-01-15T15:06:05;4.80;36.10
20574;DHT22;10445;50.216;7.912;2023-01-15T15:08:59;4.80;35.30
20574;DHT22;10445;50.216;7.912;2023-01-15T15:11:50;4.70;36.80
20574;DHT22;10445;50.216;7.912;2023-01-15T15:15:03;4.70;39.40
20574;DHT22;10445;50.216;7.912;2023-01-15T15:18:00;4.60;40.20
20574;DHT22;10445;50.216;7.912;2023-01-15T15:20:58;4.50;41.60
20574;DHT22;10445;50.216;7.912;2023-01-15T15:23:52;4.40;41.40
20574;DHT22;10445;50.216;7.912;2023-01-15T15:26:43;4.40;46.50
20574;DHT22;10445;50.216;7.912;2023-01-15T15:29:33;4.30;45.70
20574;DHT22;10445;50.216;7.912;2023-01-15T15:32:24;4.30;46.50
20574;DHT22;10445;50.216;7.912;2023-01-15T15:35:23;4.30;47.30
20574;DHT22;10445;50.216;7.912;2023-01-15T15:38:17;4.30;47.70
20574;DHT22;10445;50.216;7.912;2023-01-15T15:41:10;4.30;50.30
20574;DHT22;10445;50.216;7.912;2023-01-15T15:44:00;4.20;55.40
20574;DHT22;10445;50.216;7.912;2023-01-15T15:47:18;4.10;59.60
20574;DHT22;10445;50.216;7.912;2023-01-15T15:50:26;4.00;64.10
20574;DHT22;10445;50.216;7.912;2023-01-15T15:53:16;3.90;67.10
20574;DHT22;10445;50.216;7.912;2023-01-15T15:56:05;3.80;68.00
20574;DHT22;10445;50.216;7.912;2023-01-15T15:58:54;3.80;67.20
20574;DHT22;10445;50.216;7.912;2023-01-15T16:01:44;3.70;68.90
20574;DHT22;10445;50.216;7.912;2023-01-15T16:04:34;3.70;70.30
20574;DHT22;10445;50.216;7.912;2023-01-15T16:07:25;3.70;68.00
20574;DHT22;10445;50.216;7.912;2023-01-15T16:10:17;3.70;68.40
20574;DHT22;10445;50.216;7.912;2023-01-15T16:13:11;3.70;67.70
20574;DHT22;10445;50.216;7.912;2023-01-15T16:16:02;3.70;69.00
20574;DHT22;10445;50.216;7.912;2023-01-15T16:18:54;3.80;67.80
20574;DHT22;10445;50.216;7.912;2023-01-15T16:21:45;3.70;68.60
20574;DHT22;10445;50.216;7.912;2023-01-15T16:24:34;3.80;68.40
20574;DHT22;10445;50.216;7.912;2023-01-15T16:27:25;3.80;67.20
20574;DHT22;10445;50.216;7.912;2023-01-15T16:30:15;3.90;66.90
20574;DHT22;10445;50.216;7.912;2023-01-15T16:33:05;3.80;66.20
20574;DHT22;10445;50.216;7.912;2023-01-15T16:35:55;3.90;65.50
20574;DHT22;10445;50.216;7.912;2023-01-15T16:38:48;3.90;66.60
20574;DHT22;10445;50.216;7.912;2023-01-15T16:41:39;3.80;64.80
20574;DHT22;10445;50.216;7.912;2023-01-15T16:44:35;3.80;63.10
20574;DHT22;10445;50.216;7.912;2023-01-15T16:47:26;3.90;66.00
20574;DHT22;10445;50.216;7.912;2023-01-15T16:50:27;3.80;63.40
20574;DHT22;10445;50.216;7.912;2023-01-15T16:53:41;3.90;62.90
20574;DHT22;10445;50.216;7.912;2023-01-15T16:56:52;3.90;62.60
20574;DHT22;10445;50.216;7.912;2023-01-15T16:59:58;3.90;61.80
20574;DHT22;10445;50.216;7.912;2023-01-15T17:02:48;3.80;62.70
20574;DHT22;10445;50.216;7.912;2023-01-15T17:05:37;3.80;63.90
20574;DHT22;10445;50.216;7.912;2023-01-15T17:08:31;3.80;63.60
20574;DHT22;10445;50.216;7.912;2023-01-15T17:11:24;3.80;61.70
20574;DHT22;10445;50.216;7.912;2023-01-15T17:14:20;3.80;62.80
20574;DHT22;10445;50.216;7.912;2023-01-15T17:17:16;3.70;64.20
20574;DHT22;10445;50.216;7.912;2023-01-15T17:20:11;3.70;64.20
20574;DHT22;10445;50.216;7.912;2023-01-15T17:23:00;3.70;63.20
20574;DHT22;10445;50.216;7.912;2023-01-15T17:25:49;3.80;64.50
20574;DHT22;10445;50.216;7.912;2023-01-15T17:28:37;3.80;63.70
20574;DHT22;10445;50.216;7.912;2023-01-15T17:31:29;3.80;63.10
20574;DHT22;10445;50.216;7.912;2023-01-15T17:34:18;3.80;63.60
20574;DHT22;10445;50.216;7.912;2023-01-15T17:37:11;3.80;62.00
20574;DHT22;10445;50.216;7.912;2023-01-15T17:39:59;3.80;58.90
20574;DHT22;10445;50.216;7.912;2023-01-15T17:42:48;3.80;59.20
20574;DHT22;10445;50.216;7.912;2023-01-15T17:45:37;3.90;57.60
20574;DHT22;10445;50.216;7.912;2023-01-15T17:48:27;3.90;57.90
20574;DHT22;10445;50.216;7.912;2023-01-15T17:51:16;3.90;57.00
20574;DHT22;10445;50.216;7.912;2023-01-15T17:54:05;4.00;58.00
20574;DHT22;10445;50.216;7.912;2023-01-15T17:56:53;3.90;60.40
20574;DHT22;10445;50.216;7.912;2023-01-15T17:59:59;3.80;66.40
20574;DHT22;10445;50.216;7.912;2023-01-15T18:03:11;3.70;70.20
20574;DHT22;10445;50.216;7.912;2023-01-15T18:06:20;3.60;72.80
20574;DHT22;10445;50.216;7.912;2023-01-15T18:09:09;3.60;72.50
20574;DHT22;10445;50.216;7.912;2023-01-15T18:11:58;3.50;72.00
20574;DHT22;10445;50.216;7.912;2023-01-15T18:14:46;3.60;72.50
20574;DHT22;10445;50.216;7.912;2023-01-15T18:17:35;3.60;72.90
20574;DHT22;10445;50.216;7.912;2023-01-15T18:20:24;3.60;76.00
20574;DHT22;10445;50.216;7.912;2023-01-15T18:23:14;3.60;76.10
20574;DHT22;10445;50.216;7.912;2023-01-15T18:26:04;3.60;79.50
20574;DHT22;10445;50.216;7.912;2023-01-15T18:28:54;3.50;82.20
20574;DHT22;10445;50.216;7.912;2023-01-15T18:31:42;3.40;85.10
20574;DHT22;10445;50.216;7.912;2023-01-15T18:34:31;3.30;89.50
20574;DHT22;10445;50.216;7.912;2023-01-15T18:37:20;3.20;93.20
20574;DHT22;10445;50.216;7.912;2023-01-15T18:40:11;3.10;95.80
20574;DHT22;10445;50.216;7.912;2023-01-15T18:43:00;3.10;98.60
20574;DHT22;10445;50.216;7.912;2023-01-15T18:46:06;3.10;99.90